Murdock, Kansas
Current Conditions -  °F | °C
As of 8:53 PM on Thursday 27 Nov 2014 (Local Time) from KICT Reporting Station
Scattered Clouds Scattered Clouds  
Wind Chill: 31°   Ceiling: Unl
Heat Index: 40°   Visibility: 10mi
Dew Point: 20°   Wind: 18mph
Humidity: 45%   Direction: 170°S
Pressure: 30.2"   Gusts: NA
Location:  37.61°N, 97.93°W
Report Text: KICT 280253Z 17016KT 10SM SCT250 04/M07 A3020 RMK AO2 SLP236 T00441067 58029
Loading
Personal Weather Stations






























Interactive Weather Map New forecast layout! Learn more

10-Day Weather Forecast

Advertisements
Track Severe Weather on mobile